Rallye Mare e Machja 2017
Le 10,11, 12 Novembre
1 1 LEANDRI Jean-Mathieu/GORGUILO Anthony Skoda Fabia R 5 23:08,6 98km/h
2 2 GORDON Jean Pierre/GORDON Fabrice Ford Fiesta R 5 24:10,2 +01:01,6 +01:01,6
3 7 LEFEBVRE Frédéric/DINI Gilbert Mitsubishi Evo 9 FA 8 24:32,4 +01:23,8 +00:22,2
4 28 VANNUCCI Louis/DE BARTOLO Fabrice Citroën Saxo S1600 FA 6K 24:50,9 +01:42,3 +00:18,5
5 4 PISANO Mickaël/BERTHOLLE Olivier Ford Fiesta R 5 24:51,3 +01:42,7 +00:00,4
6 50 CHASSAING Philippe/BACCHIOLELLI Jean-Baptiste Renault Clio Ragnotti FN 3 24:59,7 +01:51,1 +00:08,4
7 43 SERRA Dominique/BURESI Francois-Xavier Peugeot 208 Vti R 2 25:12,9 +02:04,3 +00:13,2
8 41 FIORI Jean-Antoine/TAVERA Julien Citroën C2 R2 R 2 25:14,2 +02:05,6 +00:01,3
9 40 ALERINI Paul/BARICHELLA Tony Peugeot 208 Vti R 2 25:19,6 +02:11,0 +00:05,4
10 49 MUSELLI Jean-Philippe/MASSON Elodie Renault Clio FN 3 25:21,3 +02:12,7 +00:01,7
11 46 BURESI Adrien/BURESI Romain Peugeot 208 R2 R 2 25:24,9 +02:16,3 +00:03,6
12 14 GAMBARELLI Anghjulu/CASANOVA Miguel Renault Clio F2 14 25:42,4 +02:33,8 +00:17,5
13 51 DE LA FOATA Paul/TERRONI Cédric Renault Clio Ragnotti N 3 25:47,1 +02:38,5 +00:04,7
14 59 MARCHETTI Michel/MAUREL Virginie Citroën Saxo Vts F2 13 25:58,3 +02:49,7 +00:11,2
15 32 BROQUET John/STEFANAGGI Antoine Peugeot 106 S16 A 6K 26:17,8 +03:09,2 +00:19,5
16 65 LORENZONI Philippe/CATELLAGGI Julie Honda Civic Eg6 FN 2 26:20,6 +03:12,0 +00:02,8
17 26 ANDREUCCI Frédéric/LECA Nicolas Renault Clio 16V FA 6K 26:40,3 +03:31,7 +00:19,7
18 64 VENTURI Christian/PIERAZZI Arnaud Peugeot 205 Rallye FA 5 26:44,2 +03:35,6 +00:03,9
19 34 MARIANI Anthony/HELM Vivien Peugeot 206 Xs FA 6K 26:44,4 +03:35,8 +00:00,2
20 48 PAOLI Benjamin/MOSSA Sebastien Peugeot 208 Vti R 2 26:52,6 +03:44,0 +00:08,2
21 54 DE MEYER Jean-Michel/FRATTI Eric Renault Clio Ragnotti N 3 26:53,2 +03:44,6 +00:00,6
22 33 MARCHINI Jean Paul/SIMONETTI Johanna Peugeot 206 Xs A 6K 26:58,6 +03:50,0 +00:05,4
23 10 ROSSI Yannick/VOLPEI Baptiste Mitsubishi Lancer Evo 9 FN 4 27:00,6 +03:52,0 +00:02,0
24 45 BUCCI Pierre-Laurent/CAVIGLIOLI Caroline Citroën C2 R2 Max R 2 27:00,7 +03:52,1 +00:00,1
25 66 MAESTRACCI François/CASANOVA Sébastien Peugeot 106 FN 2 27:03,1 +03:54,5 +00:02,4
26 15 FILMONT Jérôme/VIGNOLI Jean-Francois Peugeot 306 S16 F2 14 27:09,4 +04:00,8 +00:06,3
27 47 GIANNINI Eric/GIANNINI Anthony Peugeot 208 R2 R 2 27:14,5 +04:05,9 +00:05,1
28 6 GIOVANNANGELI Jean Baptiste/SANTARELLI Coralie BMW M3 FA 8 27:46,6 +04:38,0 +00:32,1
29 62 SALINI Laura/PERETTI Myriam Citroën Saxo FA 6 27:51,0 +04:42,4 +00:04,4
30 68 NIVAGGIONI Jean-Toussaint/PONSOT Sébastien Citroën Saxo Vts FN 2 27:54,1 +04:45,5 +00:03,1
31 74 PINELLI Jean-Pierre/CANEGGIANI Dylan Peugeot 205 Rallye F2 12 28:00,2 +04:51,6 +00:06,1
32 37 CASALTA Cyril/FERRACCI Nicolas Peugeot 206 FA 6K 28:10,3 +05:01,7 +00:10,1
33 35 MARTINETTI Jean-Laurent/DELCLAUD Christian Peugeot 206 Xs A 6K 28:23,9 +05:15,3 +00:13,6
34 67 CASABIANCA Jacques-Francois/PENNACCHIONI Marcel Peugeot 106 S16 FN 2 28:39,0 +05:30,4 +00:15,1
35 36 GERONIMI Dominique-Noel/QUILICI Anthony Peugeot 106 S16 FA 6K 29:06,1 +05:57,5 +00:27,1
36 38 CADDEO Allan/LOUVEL Jade Peugeot 206 Xs FA 6K 29:33,0 +06:24,4 +00:26,9
37 76 NICOLI Gérard/GALTIERI Marie-Flore Citroën Ax Sport FN 1 29:38,7 +06:30,1 +00:05,7
38 23 ROBERT Alexandre/MILIANI Pascal Peugeot 205 F2 14 29:48,7 +06:40,1 +00:10,0
39 25 SALVADORI Paul-Joseph/CARRE Jessica Peugeot 205 GTI F2 14 30:54,2 +07:45,6 +01:05,5
40 75 TROMBI Philippe/DELATTRE Judicael Peugeot 106 F2 12 31:23,9 +08:15,3 +00:29,7
41 44 ANTONA Julien/MANZAGGI Nicolas Citroën C2 R2 Max R 2 32:04,4 +08:55,8 +00:40,5
42 72 PAPON Jean-Noel/AMBROSI Céline Citroën Saxo Vts F2 12 40:19,3 +17:10,7 +08:14,9
43 22 RENUCCI Jacques-Andre/RENUCCI Daniel Peugeot 205 Gti F2 14 43:53,6 +20:45,0 +03:34,3
Clt Equipage Voiture Gr/Cl Temps Ecart 1er Ecart préc. Catégories
Commentaires: © PatricK Soft  
(Temps forfaitaires=couleur bleue)
Classés:43

Epreuve: Groupe: Catégorie:

 
Retour
Classement ES6-Circuit du Maquis (38.060 km)